Impacts METAR Board
IDs:

KEWR - Newark Intl, NJ, US

Updated at: 0300 UTC 22 Jun 2018
Potential Impact None Slight Moderate High
Time 21/15Z 21/16Z 21/17Z 21/18Z 21/19Z 21/20Z 21/21Z 21/22Z 21/23Z 22/00Z 22/01Z 22/02Z 22/03Z
Temp75 79 81 83 84 86 86 86 83 81 79 77 77
Dewpt63 60 58 54 55 51 50 49 56 55 57 62 63
Altim29.79 29.78 29.77 29.76 29.75 29.75 29.75 29.75 29.76 29.77 29.79 29.82 29.83
VIS10 10 10 10 10 10 10 10 10 10 10 10 10
CIG120 140 -- 250 250 250 250 250 250 250 250 250 250
CoverBKNBKNSCTBKNBKNBKNBKNBKNBKNBKNBKNBKNBKN
FltCatVFRVFRVFRVFRVFRVFRVFRVFRVFRVFRVFRVFRVFR
WX--------------------------
WDir30350103020360060170150160180230
WSpd9 10 8 11 5 11 5 6 6 5 5 6 6
WGst-- -- -- -- -- 15 -- -- -- -- -- -- --
Raw hourly METARs
KEWR 211451Z 03009KT 10SM SCT025 SCT090 BKN120 BKN250 24/17 A2979 RMK AO2 SLP086 60000 T02390172 52006
KEWR 211551Z 35010KT 10SM FEW030 SCT055 BKN140 26/16 A2978 RMK AO2 SLP085 T02610156
KEWR 211651Z 01008KT 10SM FEW045 SCT120 SCT250 27/14 A2977 RMK AO2 SLP081 T02720144
KEWR 211751Z 03011KT 10SM FEW055 SCT110 BKN250 28/12 A2976 RMK AO2 SLP078 60000 T02830122 10294 20194 58007
KEWR 211851Z 02005KT 10SM FEW055 SCT110 BKN250 29/13 A2975 RMK AO2 SLP074 T02890128
KEWR 211951Z 36011G15KT 330V040 10SM FEW065 FEW110 BKN250 30/11 A2975 RMK AO2 SLP073 T03000106
KEWR 212054Z VRB05KT 10SM FEW070 FEW110 BKN250 30/10 A2975 RMK AO2 T03000100
KEWR 212151Z 06006KT 10SM FEW070 BKN250 30/09 A2975 RMK AO2 SLP072 T03000094
KEWR 212251Z 17006KT 10SM FEW060 BKN250 28/13 A2976 RMK AO2 SLP076 T02830133
KEWR 212351Z 15005KT 10SM FEW055 BKN250 27/13 A2977 RMK AO2 SLP081 T02720128 10306 20272 53008
KEWR 220051Z 16005KT 10SM FEW055 BKN250 26/14 A2979 RMK AO2 SLP087 T02610139
KEWR 220151Z 18006KT 10SM SCT075 BKN250 25/17 A2982 RMK AO2 SLP098 T02500167
KEWR 220251Z 23006KT 10SM SCT080 BKN250 25/17 A2983 RMK AO2 SLP102 T02500172 51021



Page loaded:  03:11 UTC  |   08:11 PM Pacific  |   09:11 PM Mountain  |   10:11 PM Central  |   11:11 PM Eastern

 

ADVISORIES

FORECASTS

FORECASTS

OBSERVATIONS

USER TOOLS

ABOUT US